createdAt,value
2022-12-23T00:01:16.741Z,1.80
2022-12-23T00:06:16.441Z,1.90
2022-12-23T00:11:18.999Z,1.90
2022-12-23T00:16:16.805Z,1.90
2022-12-23T00:21:16.966Z,1.80
2022-12-23T00:26:22.577Z,1.80
2022-12-23T00:31:21.422Z,1.80
2022-12-23T00:36:30.078Z,1.80
2022-12-23T00:41:46.474Z,1.80
2022-12-23T00:46:43.999Z,1.90
2022-12-23T00:51:41.487Z,1.90
2022-12-23T00:56:38.751Z,1.80
2022-12-23T01:01:55.059Z,1.90
2022-12-23T01:06:52.532Z,1.90
2022-12-23T01:11:49.726Z,2.00
2022-12-23T01:16:47.143Z,2.10
2022-12-23T01:21:44.444Z,2.10
2022-12-23T01:26:41.929Z,2.10
2022-12-23T01:31:39.422Z,2.00
2022-12-23T01:36:36.786Z,2.20
2022-12-23T01:41:53.334Z,2.10
2022-12-23T01:46:50.932Z,1.90
2022-12-23T01:51:48.212Z,2.00
2022-12-23T01:56:46.379Z,2.00
2022-12-23T02:02:02.465Z,2.00
2022-12-23T02:07:18.112Z,2.00
2022-12-23T02:12:34.216Z,1.90
2022-12-23T02:17:55.397Z,1.90
2022-12-23T02:23:11.130Z,1.90
2022-12-23T02:28:30.079Z,1.90
2022-12-23T02:33:59.605Z,1.90
2022-12-23T02:39:22.326Z,1.80
2022-12-23T02:44:33.587Z,1.90
2022-12-23T02:49:35.483Z,1.90
2022-12-23T02:54:40.087Z,1.80
2022-12-23T02:59:42.865Z,1.80
2022-12-23T03:04:42.454Z,1.80
2022-12-23T03:10:03.376Z,1.80
2022-12-23T03:15:11.821Z,1.70
2022-12-23T03:20:12.189Z,1.70
2022-12-23T03:25:48.117Z,1.90
2022-12-23T03:30:51.419Z,2.00
2022-12-23T03:36:05.240Z,2.00
2022-12-23T03:41:08.374Z,2.00
2022-12-23T03:46:11.798Z,2.00
2022-12-23T03:51:16.726Z,2.10
2022-12-23T03:56:22.703Z,1.90
2022-12-23T04:01:41.363Z,2.10
2022-12-23T04:06:51.545Z,1.90
2022-12-23T04:11:48.838Z,1.80
2022-12-23T04:16:47.226Z,2.00
2022-12-23T04:21:44.452Z,1.90
2022-12-23T04:26:41.747Z,2.00
2022-12-23T04:31:39.070Z,1.90
2022-12-23T04:36:36.394Z,1.90
2022-12-23T04:41:37.508Z,1.80
2022-12-23T04:46:35.528Z,1.80
2022-12-23T04:51:33.264Z,1.80
2022-12-23T04:56:33.547Z,1.80
2022-12-23T05:01:32.260Z,1.70
2022-12-23T05:06:31.139Z,1.70
2022-12-23T05:11:29.600Z,1.70
2022-12-23T05:16:27.807Z,1.90
2022-12-23T05:21:25.576Z,1.90
2022-12-23T05:26:30.098Z,1.90
2022-12-23T05:31:27.935Z,2.00
2022-12-23T05:36:25.473Z,1.90
2022-12-23T05:41:23.301Z,2.00
2022-12-23T05:46:26.139Z,2.00
2022-12-23T05:51:24.593Z,2.00
2022-12-23T05:56:21.807Z,1.90
2022-12-23T06:01:19.121Z,1.90
2022-12-23T06:06:16.953Z,2.00
2022-12-23T06:11:14.299Z,1.90
2022-12-23T06:16:11.823Z,2.10
2022-12-23T06:21:09.038Z,2.20
2022-12-23T06:26:06.418Z,2.00
2022-12-23T06:31:03.639Z,2.00
2022-12-23T06:36:00.937Z,2.00
2022-12-23T06:40:58.384Z,2.00
2022-12-23T06:45:55.905Z,2.00
2022-12-23T06:50:53.174Z,2.10
2022-12-23T06:55:50.437Z,2.20
2022-12-23T07:00:47.697Z,2.20
2022-12-23T07:05:48.447Z,2.30
2022-12-23T07:10:45.706Z,2.30
2022-12-23T07:15:43.100Z,2.20
2022-12-23T07:20:40.353Z,2.10
2022-12-23T07:25:37.920Z,2.10
2022-12-23T07:30:36.269Z,2.00
2022-12-23T07:35:34.072Z,2.10
2022-12-23T07:40:31.797Z,2.30
2022-12-23T07:45:30.780Z,2.30
2022-12-23T07:50:28.624Z,2.30
2022-12-23T07:55:26.273Z,2.50
2022-12-23T08:00:23.542Z,2.50
2022-12-23T08:05:20.915Z,2.50
2022-12-23T08:10:18.377Z,2.60
2022-12-23T08:15:15.772Z,2.60
2022-12-23T08:20:13.136Z,2.70
2022-12-23T08:25:10.601Z,2.70
2022-12-23T08:30:09.354Z,2.80
2022-12-23T08:35:07.147Z,2.80
2022-12-23T08:40:04.686Z,2.90
2022-12-23T08:45:02.626Z,2.90
2022-12-23T08:50:00.000Z,3.00
2022-12-23T08:54:57.328Z,3.00
2022-12-23T08:59:54.582Z,3.20
2022-12-23T09:04:51.762Z,3.00
2022-12-23T09:09:50.199Z,3.00
2022-12-23T09:14:47.995Z,3.10
2022-12-23T09:19:52.289Z,3.50
2022-12-23T09:24:50.387Z,3.70
2022-12-23T09:29:47.566Z,3.90
2022-12-23T09:34:45.034Z,3.90
2022-12-23T09:39:42.450Z,3.90
2022-12-23T09:44:53.297Z,3.90
2022-12-23T09:49:55.710Z,4.10
2022-12-23T09:54:55.740Z,3.90
2022-12-23T10:00:04.723Z,4.10
2022-12-23T10:05:22.732Z,4.10
2022-12-23T10:10:41.777Z,4.00
2022-12-23T10:15:48.145Z,4.00
2022-12-23T10:20:53.471Z,4.00
2022-12-23T10:25:52.546Z,3.80
2022-12-23T10:31:30.941Z,3.80
2022-12-23T10:36:40.777Z,3.90
2022-12-23T10:42:29.896Z,4.10
2022-12-23T10:47:41.211Z,4.10
2022-12-23T10:52:41.753Z,4.10
2022-12-23T10:57:39.183Z,4.30
2022-12-23T11:02:57.884Z,4.30
2022-12-23T11:07:56.001Z,4.40
2022-12-23T11:12:54.310Z,4.40
2022-12-23T11:18:14.482Z,4.30
2022-12-23T11:23:27.353Z,4.10
2022-12-23T11:28:25.088Z,4.30
2022-12-23T11:33:30.240Z,4.40
2022-12-23T11:38:27.542Z,4.50
2022-12-23T11:43:26.800Z,4.50
2022-12-23T11:48:29.856Z,4.30
2022-12-23T11:53:28.001Z,4.10
2022-12-23T11:58:26.251Z,4.00
2022-12-23T12:03:36.877Z,4.10
2022-12-23T12:08:38.633Z,4.30
2022-12-23T12:13:41.987Z,4.60
2022-12-23T12:18:42.562Z,5.00
2022-12-23T12:24:14.734Z,5.00
2022-12-23T12:29:30.991Z,4.80
2022-12-23T12:34:52.350Z,4.60
2022-12-23T12:39:58.617Z,4.50
2022-12-23T12:45:18.121Z,4.30
2022-12-23T12:50:30.388Z,4.60
2022-12-23T12:55:33.728Z,4.60
2022-12-23T13:00:42.184Z,4.80
2022-12-23T13:06:05.136Z,4.50
2022-12-23T13:11:24.916Z,4.40
2022-12-23T13:16:45.606Z,4.30
2022-12-23T13:21:48.828Z,3.80
2022-12-23T13:27:19.263Z,3.70
2022-12-23T13:32:44.535Z,3.90
2022-12-23T13:37:50.704Z,3.80
2022-12-23T13:42:54.940Z,3.60
2022-12-23T13:48:05.374Z,3.60
2022-12-23T13:53:05.581Z,3.80
2022-12-23T13:58:15.261Z,3.90
2022-12-23T14:03:30.079Z,3.90
2022-12-23T14:08:55.343Z,3.70
2022-12-23T14:13:53.037Z,3.80
2022-12-23T14:19:23.436Z,3.80
2022-12-23T14:24:53.942Z,3.40
2022-12-23T14:30:17.499Z,3.50
2022-12-23T14:35:20.918Z,3.30
2022-12-23T14:40:56.156Z,3.20
2022-12-23T14:46:01.999Z,3.10
2022-12-23T14:51:09.603Z,3.10
2022-12-23T14:56:10.889Z,3.00
2022-12-23T15:01:15.636Z,3.20
2022-12-23T15:06:21.552Z,2.70
2022-12-23T15:11:26.224Z,2.50
2022-12-23T15:16:32.418Z,2.50
2022-12-23T15:21:33.853Z,2.50
2022-12-23T15:26:32.827Z,2.40
2022-12-23T15:31:42.534Z,2.60
2022-12-23T15:36:44.069Z,2.70
2022-12-23T15:41:45.591Z,2.60
2022-12-23T15:46:43.583Z,2.40
2022-12-23T15:57:04.517Z,2.20
2022-12-23T16:02:58.934Z,2.20
2022-12-23T16:07:42.900Z,2.20
2022-12-23T16:12:41.438Z,2.00
2022-12-23T16:17:42.386Z,2.00
2022-12-23T16:22:39.953Z,2.30
2022-12-23T16:27:40.768Z,2.40
2022-12-23T16:32:52.666Z,2.30
2022-12-23T16:37:51.424Z,2.40
2022-12-23T16:42:48.966Z,2.50
2022-12-23T16:47:46.185Z,2.30
2022-12-23T16:52:43.608Z,2.10
2022-12-23T16:57:40.879Z,2.10
2022-12-23T17:02:39.054Z,2.10
2022-12-23T17:07:41.552Z,2.10
2022-12-23T17:12:44.368Z,2.10
2022-12-23T17:17:41.856Z,2.20
2022-12-23T17:22:40.469Z,2.30
2022-12-23T17:27:37.819Z,2.40
2022-12-23T17:32:35.104Z,2.50
2022-12-23T17:37:32.590Z,2.40
2022-12-23T17:42:30.256Z,2.20
2022-12-23T17:47:27.912Z,2.20
2022-12-23T17:52:25.209Z,2.20
2022-12-23T17:57:27.009Z,2.30
2022-12-23T18:02:32.433Z,2.40
2022-12-23T18:07:29.677Z,2.40
2022-12-23T18:12:39.220Z,2.30
2022-12-23T18:17:36.633Z,2.30
2022-12-23T18:22:34.509Z,2.40
2022-12-23T18:27:32.447Z,2.50
2022-12-23T18:32:30.254Z,2.40
2022-12-23T18:37:27.954Z,2.30
2022-12-23T18:42:25.442Z,2.20
2022-12-23T18:47:22.685Z,2.00
2022-12-23T18:52:19.892Z,2.00
2022-12-23T18:57:17.831Z,2.00
2022-12-23T19:02:15.461Z,2.00
2022-12-23T19:07:13.037Z,2.10
2022-12-23T19:12:10.301Z,2.10
2022-12-23T19:17:07.712Z,2.30
2022-12-23T19:22:04.962Z,2.30
2022-12-23T19:27:02.414Z,2.10
2022-12-23T19:31:59.737Z,2.10
2022-12-23T19:36:57.175Z,2.10
2022-12-23T19:41:54.624Z,2.20
2022-12-23T19:46:52.530Z,2.00
2022-12-23T19:51:50.016Z,2.20
2022-12-23T19:56:50.165Z,2.10
2022-12-23T20:01:47.521Z,2.10
2022-12-23T20:06:45.797Z,2.30
2022-12-23T20:11:46.210Z,2.50
2022-12-23T20:16:44.022Z,2.30
2022-12-23T20:21:42.297Z,2.30
2022-12-23T20:26:40.142Z,2.30
2022-12-23T20:31:38.952Z,2.40
2022-12-23T20:36:36.993Z,2.20
2022-12-23T20:41:35.084Z,2.30
2022-12-23T20:46:32.595Z,2.40
2022-12-23T20:51:33.024Z,2.30
2022-12-23T20:56:30.585Z,2.20
2022-12-23T21:01:35.291Z,2.30
2022-12-23T21:06:33.259Z,2.30
2022-12-23T21:11:32.381Z,2.10
2022-12-23T21:16:30.766Z,2.00
2022-12-23T21:21:31.263Z,2.10
2022-12-23T21:26:30.392Z,2.20
2022-12-23T21:31:29.928Z,2.10
2022-12-23T21:36:31.269Z,2.20
2022-12-23T21:41:31.512Z,2.40
2022-12-23T21:46:29.351Z,2.30
2022-12-23T21:51:40.263Z,2.20
2022-12-23T21:56:39.486Z,2.10
2022-12-23T22:01:36.825Z,2.10
2022-12-23T22:06:37.448Z,2.10
2022-12-23T22:11:38.675Z,2.20
2022-12-23T22:16:36.665Z,2.10
2022-12-23T22:21:35.600Z,2.20
2022-12-23T22:26:34.225Z,2.20
2022-12-23T22:31:49.725Z,2.20
2022-12-23T22:36:47.797Z,2.30
2022-12-23T22:41:45.642Z,2.20
2022-12-23T22:46:43.175Z,2.10
2022-12-23T22:51:41.563Z,2.20
2022-12-23T22:56:39.364Z,2.20
2022-12-23T23:01:37.107Z,2.10
2022-12-23T23:06:39.513Z,2.20
2022-12-23T23:11:36.854Z,2.00
2022-12-23T23:16:34.271Z,2.10
2022-12-23T23:21:32.263Z,2.00
2022-12-23T23:26:29.484Z,2.10
2022-12-23T23:31:43.602Z,2.10
2022-12-23T23:36:41.747Z,2.20
2022-12-23T23:41:39.017Z,2.00
2022-12-23T23:46:36.251Z,2.00
2022-12-23T23:51:33.667Z,2.00
2022-12-23T23:56:37.871Z,2.00
